Other Surface Observations
Issued by NWS Missoula, MT

Home | Current Version | Previous Version | Text Only | Print | Product List | Glossary On
Versions: 1 2 3 4 5 6 7 8 9 10 11 12 13 14 15 16 17 18 19 20 21 22 23 24 25 26 27 28 29 30 31 32 33 34 35 36 37 38 39 40 41 42 43 44 45 46 47 48 49 50
000
SXUS55 KMSO 251303
OSOMSO
MONTANA AWOS SUMMARY
NATIONAL WEATHER SERVICE MISSOULA MT
703 AM MDT THU MAY 25 2017

Montana AWOS Reports

LAUREL      |K6S8 251255Z AUTO 24012G26KT 40SM 09/M04 A2961 RMK AO1 T00941043
ROUNDUP     |KRPX 251255Z AUTO 23007KT 25SM 08/02 A2951 RMK AO1 T00830017
EKALAKA     |K97M 251255Z AUTO 00000KT 40SM 07/01 A2953 RMK AO1 T00720011
PLAINS      |KS34 251255Z AUTO 00000KT 40SM 08/03 A2980 RMK AO1 T00780033
SCOBEY      |K9S2 251255Z AUTO 21021G27KT 15SM 08/00 A2931 RMK AO1 T00780000
TWIN BRIDGES|K7S1 251255Z AUTO 00000KT 40SM 05/M07 A2976 RMK AO1 T00501066




USA.gov is the U.S. government's official web portal to all federal, state and local government web resources and services.